createdAt,value
2018-12-04T00:07:34.083Z,95062.25
2018-12-04T00:10:04.028Z,95061.47
2018-12-04T00:12:33.676Z,95055.27
2018-12-04T00:32:25.981Z,95055.95
2018-12-04T00:34:55.810Z,95055.06
2018-12-04T00:37:25.539Z,95056.80
2018-12-04T00:39:55.336Z,95055.53
2018-12-04T00:42:24.852Z,95058.16
2018-12-04T00:44:54.684Z,95046.28
2018-12-04T00:47:24.184Z,95043.66
2018-12-04T00:49:53.922Z,95042.70
2018-12-04T00:52:23.764Z,95041.39
2018-12-04T00:54:53.525Z,95041.78
2018-12-04T00:57:23.536Z,95036.92
2018-12-04T00:59:53.026Z,95034.69
2018-12-04T01:02:22.727Z,95033.78
2018-12-04T01:04:52.159Z,95028.50
2018-12-04T01:07:21.462Z,95023.55
2018-12-04T01:09:51.346Z,95017.86
2018-12-04T01:12:20.988Z,95021.64
2018-12-04T01:14:50.583Z,95020.11
2018-12-04T01:17:20.189Z,95011.94
2018-12-04T01:19:49.692Z,95004.98
2018-12-04T01:22:19.149Z,95006.48
2018-12-04T01:24:48.983Z,95003.70
2018-12-04T01:27:18.484Z,95010.45
2018-12-04T01:29:47.999Z,95003.50
2018-12-04T01:32:17.643Z,94996.13
2018-12-04T01:34:47.313Z,94993.95
2018-12-04T01:37:16.925Z,94988.91
2018-12-04T01:57:08.759Z,94990.67
2018-12-04T01:59:38.298Z,94989.57
2018-12-04T02:02:08.339Z,94991.53
2018-12-04T02:04:38.025Z,94987.69
2018-12-04T02:07:07.392Z,94988.85
2018-12-04T02:09:37.060Z,94988.05
2018-12-04T02:12:06.540Z,94985.48
2018-12-04T02:14:36.088Z,94987.63
2018-12-04T02:17:05.532Z,94987.59
2018-12-04T02:19:35.254Z,94985.89
2018-12-04T02:22:04.708Z,94992.55
2018-12-04T02:24:34.280Z,94991.59
2018-12-04T02:27:03.700Z,94989.30
2018-12-04T02:29:33.188Z,94987.98
2018-12-04T02:32:02.690Z,94987.06
2018-12-04T02:34:32.241Z,94986.56
2018-12-04T02:37:01.705Z,94990.25
2018-12-04T02:39:31.228Z,94990.08
2018-12-04T02:42:00.907Z,94988.05
2018-12-04T02:44:30.440Z,94982.53
2018-12-04T02:46:59.950Z,94987.30
2018-12-04T02:49:29.699Z,94986.86
2018-12-04T02:51:59.515Z,94984.73
2018-12-04T02:54:29.082Z,94988.05
2018-12-04T02:56:58.661Z,94977.64
2018-12-04T02:59:28.260Z,94977.16
2018-12-04T03:01:58.366Z,94980.47
2018-12-04T03:04:28.104Z,94979.07
2018-12-04T03:06:57.608Z,94980.89
2018-12-04T03:09:27.215Z,94981.19
2018-12-04T03:11:56.717Z,94979.94
2018-12-04T03:14:26.753Z,94977.84
2018-12-04T03:16:56.388Z,94981.16
2018-12-04T03:19:25.948Z,94979.72
2018-12-04T03:21:55.556Z,94977.25
2018-12-04T03:24:25.170Z,94970.48
2018-12-04T03:26:54.912Z,94978.20
2018-12-04T03:29:24.601Z,94974.17
2018-12-04T03:31:54.171Z,94976.39
2018-12-04T03:34:24.003Z,94978.63
2018-12-04T03:36:53.640Z,94973.76
2018-12-04T03:39:23.463Z,94976.95
2018-12-04T03:41:53.035Z,94970.30
2018-12-04T03:44:22.681Z,94977.45
2018-12-04T03:46:52.252Z,94977.02
2018-12-04T03:49:21.754Z,94972.95
2018-12-04T03:51:51.740Z,94972.12
2018-12-04T03:54:21.298Z,94974.15
2018-12-04T03:56:51.408Z,94969.64
2018-12-04T03:59:21.130Z,94968.66
2018-12-04T04:01:50.741Z,94976.39
2018-12-04T04:04:20.234Z,94975.48
2018-12-04T04:06:49.952Z,94977.67
2018-12-04T04:32:28.957Z,94977.69
2018-12-04T04:34:58.531Z,94974.23
2018-12-04T04:37:28.043Z,94980.50
2018-12-04T04:39:57.587Z,94971.02
2018-12-04T04:42:27.193Z,94974.92
2018-12-04T04:44:57.154Z,94977.78
2018-12-04T05:04:48.229Z,94966.09
2018-12-04T05:07:18.112Z,94968.95
2018-12-04T05:27:11.013Z,94960.27
2018-12-04T05:29:40.778Z,94957.44
2018-12-04T05:32:10.202Z,94960.60
2018-12-04T05:34:39.977Z,94955.77
2018-12-04T05:37:09.517Z,94963.10
2018-12-04T05:57:01.370Z,94965.20
2018-12-04T05:59:31.018Z,94968.25
2018-12-04T06:02:00.648Z,94974.22
2018-12-04T06:04:30.487Z,94966.78
2018-12-04T06:06:59.936Z,94970.67
2018-12-04T06:26:53.328Z,94985.30
2018-12-04T06:46:46.034Z,94992.21
2018-12-04T06:49:15.593Z,95000.72
2018-12-04T06:51:48.575Z,94997.34
2018-12-04T06:54:18.075Z,94995.58
2018-12-04T06:56:47.559Z,94999.95
2018-12-04T06:59:18.581Z,94994.16
2018-12-04T07:19:09.538Z,94995.03
2018-12-04T07:21:40.091Z,94999.98
2018-12-04T07:24:10.833Z,94987.06
2018-12-04T07:44:02.920Z,95001.31
2018-12-04T07:46:32.493Z,94998.35
2018-12-04T07:49:02.095Z,95003.35
2018-12-04T07:51:32.810Z,95004.92
2018-12-04T08:11:23.863Z,95001.70
2018-12-04T08:13:54.393Z,95002.94
2018-12-04T08:16:23.973Z,95000.61
2018-12-04T08:18:53.571Z,94993.41
2018-12-04T08:21:23.139Z,94999.27
2018-12-04T08:23:52.742Z,95000.08
2018-12-04T08:26:23.033Z,94995.46
2018-12-04T08:28:54.115Z,94996.94
2018-12-04T08:31:23.779Z,94997.45
2018-12-04T08:33:53.909Z,94998.30
2018-12-04T08:36:24.681Z,94993.95
2018-12-04T08:38:54.364Z,94992.47
2018-12-04T08:41:24.474Z,94988.80
2018-12-04T08:43:53.931Z,94984.73
2018-12-04T08:46:23.458Z,94985.36
2018-12-04T08:48:53.182Z,94984.56
2018-12-04T08:51:23.123Z,94983.84
2018-12-04T09:11:15.624Z,94970.20
2018-12-04T09:13:45.308Z,94973.87
2018-12-04T09:16:14.945Z,94971.94
2018-12-04T09:18:44.488Z,94968.05
2018-12-04T09:21:14.096Z,94963.30
2018-12-04T09:23:43.616Z,94964.34
2018-12-04T09:26:13.423Z,94956.45
2018-12-04T09:28:42.854Z,94956.10
2018-12-04T09:31:12.567Z,94954.55
2018-12-04T09:33:42.229Z,94947.43
2018-12-04T09:53:34.359Z,94927.47
2018-12-04T09:56:04.062Z,94929.85
2018-12-04T10:16:00.522Z,94896.53
2018-12-04T10:18:32.905Z,94894.17
2018-12-04T10:21:04.013Z,94890.11
2018-12-04T10:23:34.669Z,94889.74
2018-12-04T10:26:04.270Z,94884.52
2018-12-04T10:28:35.051Z,94885.60
2018-12-04T10:31:12.678Z,94882.94
2018-12-04T10:33:46.947Z,94884.84
2018-12-04T10:36:17.048Z,94890.80
2018-12-04T10:56:08.574Z,94834.89
2018-12-04T10:58:39.175Z,94865.88
2018-12-04T11:01:13.848Z,94861.09
2018-12-04T11:21:05.626Z,94866.34
2018-12-04T11:23:35.824Z,94865.38
2018-12-04T11:26:06.262Z,94860.70
2018-12-04T11:28:35.740Z,94865.84
2018-12-04T11:31:05.725Z,94859.48
2018-12-04T11:33:35.482Z,94848.78
2018-12-04T11:36:05.112Z,94859.39
2018-12-04T11:38:34.620Z,94855.33
2018-12-04T11:41:03.951Z,94851.95
2018-12-04T11:43:33.594Z,94851.77
2018-12-04T11:46:03.208Z,94853.85
2018-12-04T11:48:33.255Z,94856.24
2018-12-04T11:51:02.681Z,94852.16
2018-12-04T11:53:32.073Z,94845.92
2018-12-04T11:56:01.717Z,94846.48
2018-12-04T11:58:31.387Z,94849.97
2018-12-04T12:01:01.000Z,94843.02
2018-12-04T12:03:30.953Z,94849.75
2018-12-04T12:34:57.254Z,94843.61
2018-12-04T12:37:26.914Z,94844.99
2018-12-04T12:39:56.457Z,94840.02
2018-12-04T12:42:25.973Z,94851.35
2018-12-04T12:44:55.985Z,94839.73
2018-12-04T12:47:27.047Z,94845.36
2018-12-04T12:49:57.445Z,94847.95
2018-12-04T12:52:27.045Z,94847.58
2018-12-04T12:54:56.728Z,94850.17
2018-12-04T12:57:26.377Z,94846.53
2018-12-04T12:59:59.483Z,94848.13
2018-12-04T13:02:29.103Z,94844.95
2018-12-04T13:04:58.973Z,94852.42
2018-12-04T13:07:29.741Z,94850.22
2018-12-04T13:10:00.798Z,94849.11
2018-12-04T13:29:54.709Z,94844.16
2018-12-04T13:32:28.158Z,94842.47
2018-12-04T13:34:58.649Z,94847.41
2018-12-04T13:37:28.207Z,94847.41
2018-12-04T13:39:59.898Z,94848.42
2018-12-04T13:42:29.610Z,94851.88
2018-12-04T13:44:59.255Z,94854.38
2018-12-04T13:47:28.960Z,94855.64
2018-12-04T13:49:58.595Z,94851.41
2018-12-04T13:52:28.593Z,94854.98
2018-12-04T14:12:20.784Z,94853.11
2018-12-04T14:14:51.683Z,94852.23
2018-12-04T14:34:44.597Z,94867.24
2018-12-04T14:54:35.914Z,94864.16
2018-12-04T14:57:05.241Z,94861.88
2018-12-04T14:59:36.197Z,94865.94
2018-12-04T15:02:05.849Z,94863.86
2018-12-04T15:04:36.376Z,94867.64
2018-12-04T15:07:07.340Z,94870.31
2018-12-04T15:09:38.393Z,94871.32
2018-12-04T15:12:08.435Z,94871.32
2018-12-04T15:14:38.045Z,94874.50
2018-12-04T15:17:07.593Z,94879.66
2018-12-04T15:19:37.470Z,94881.55
2018-12-04T15:22:07.159Z,94884.63
2018-12-04T15:24:37.524Z,94879.36
2018-12-04T15:27:07.168Z,94880.25
2018-12-04T15:29:37.370Z,94881.35
2018-12-04T15:32:06.835Z,94882.14
2018-12-04T15:34:39.589Z,94880.95
2018-12-04T15:37:10.163Z,94891.17
2018-12-04T15:39:41.556Z,94890.86
2018-12-04T15:42:12.825Z,94885.41
2018-12-04T15:44:45.484Z,94895.83
2018-12-04T15:47:18.493Z,94892.97
2018-12-04T15:49:50.071Z,94891.76
2018-12-04T15:55:16.387Z,94886.91
2018-12-04T15:57:46.382Z,94899.70
2018-12-04T16:00:24.440Z,94894.94
2018-12-04T16:02:55.022Z,94899.30
2018-12-04T16:05:26.754Z,94895.65
2018-12-04T16:07:56.705Z,94903.57
2018-12-04T16:10:26.199Z,94908.75
2018-12-04T16:12:55.877Z,94912.13
2018-12-04T16:15:25.744Z,94901.29
2018-12-04T16:17:55.362Z,94897.13
2018-12-04T16:20:25.327Z,94896.44
2018-12-04T16:22:56.320Z,94895.73
2018-12-04T16:25:26.625Z,94900.31
2018-12-04T16:27:56.666Z,94903.19
2018-12-04T16:30:26.597Z,94907.56
2018-12-04T16:32:56.573Z,94902.79
2018-12-04T16:35:26.552Z,94907.75
2018-12-04T16:37:56.559Z,94908.95
2018-12-04T16:40:27.395Z,94910.05
2018-12-04T16:42:56.599Z,94910.92
2018-12-04T16:45:27.182Z,94912.22
2018-12-04T16:47:57.108Z,94915.49
2018-12-04T16:50:27.108Z,94914.69
2018-12-04T16:52:56.751Z,94913.52
2018-12-04T16:55:27.648Z,94909.63
2018-12-04T16:57:59.489Z,94908.96
2018-12-04T17:00:30.748Z,94903.50
2018-12-04T17:03:01.418Z,94904.66
2018-12-04T17:05:30.832Z,94911.21
2018-12-04T17:08:01.699Z,94907.47
2018-12-04T17:10:31.279Z,94906.55
2018-12-04T17:13:01.463Z,94905.95
2018-12-04T17:15:31.539Z,94909.64
2018-12-04T17:18:01.192Z,94915.08
2018-12-04T17:20:30.832Z,94911.61
2018-12-04T17:23:00.143Z,94916.28
2018-12-04T17:25:30.000Z,94920.25
2018-12-04T17:28:00.118Z,94927.19
2018-12-04T17:30:29.898Z,94898.91
2018-12-04T17:33:00.298Z,94929.50
2018-12-04T17:35:31.126Z,94931.60
2018-12-04T17:38:02.649Z,94929.00
2018-12-04T17:40:32.236Z,94938.92
2018-12-04T17:43:01.560Z,94931.17
2018-12-04T17:45:31.726Z,94938.14
2018-12-04T17:48:02.875Z,94938.05
2018-12-04T17:50:32.539Z,94935.87
2018-12-04T17:53:02.343Z,94939.72
2018-12-04T17:55:34.033Z,94943.89
2018-12-04T17:58:05.580Z,94947.08
2018-12-04T18:00:36.514Z,94957.59
2018-12-04T18:03:06.172Z,94954.63
2018-12-04T18:05:35.826Z,94958.59
2018-12-04T18:08:05.209Z,94966.93
2018-12-04T18:10:34.875Z,94951.62
2018-12-04T18:13:04.489Z,94959.78
2018-12-04T18:15:33.938Z,94962.17
2018-12-04T18:18:03.614Z,94961.88
2018-12-04T18:20:33.379Z,94969.13
2018-12-04T18:23:03.157Z,94963.94
2018-12-04T18:25:32.873Z,94964.74
2018-12-04T18:28:02.433Z,94968.93
2018-12-04T18:30:32.087Z,94978.56
2018-12-04T18:33:01.488Z,94987.98
2018-12-04T18:35:31.856Z,94980.41
2018-12-04T18:38:01.839Z,94973.90
2018-12-04T18:40:31.323Z,94979.66
2018-12-04T18:43:01.174Z,94978.48
2018-12-04T18:45:30.975Z,94978.97
2018-12-04T18:48:02.030Z,94978.87
2018-12-04T18:50:32.006Z,94974.10
2018-12-04T18:53:01.758Z,94982.34
2018-12-04T18:55:32.146Z,94985.50
2018-12-04T18:58:05.423Z,94988.60
2018-12-04T19:00:37.862Z,94987.69
2018-12-04T19:03:07.656Z,94984.81
2018-12-04T19:05:37.584Z,94991.27
2018-12-04T19:08:08.414Z,94991.16
2018-12-04T19:10:40.395Z,94992.38
2018-12-04T19:13:11.938Z,94989.89
2018-12-04T19:15:44.352Z,95001.09
2018-12-04T19:18:15.887Z,94998.81
2018-12-04T19:20:45.708Z,94993.77
2018-12-04T19:23:15.489Z,94988.59
2018-12-04T19:25:45.134Z,94993.97
2018-12-04T19:28:15.555Z,95009.75
2018-12-04T19:30:48.663Z,95006.28
2018-12-04T19:33:19.253Z,95008.45
2018-12-04T19:35:49.383Z,95012.05
2018-12-04T19:38:20.367Z,95014.22
2018-12-04T19:40:51.239Z,95018.88
2018-12-04T19:43:21.767Z,95012.24
2018-12-04T19:45:52.185Z,95010.86
2018-12-04T19:48:21.863Z,95009.45
2018-12-04T19:50:51.638Z,95007.47
2018-12-04T19:53:21.333Z,94998.64
2018-12-04T19:55:52.582Z,95005.88
2018-12-04T19:58:22.889Z,95007.86
2018-12-04T20:00:52.790Z,95004.91
2018-12-04T20:03:22.784Z,95008.13
2018-12-04T20:05:52.850Z,95009.61
2018-12-04T20:08:22.478Z,95012.11
2018-12-04T20:10:52.771Z,95020.45
2018-12-04T20:13:22.646Z,95011.22
2018-12-04T20:15:54.173Z,95017.39
2018-12-04T20:18:25.434Z,95012.42
2018-12-04T20:20:55.747Z,95017.67
2018-12-04T20:23:25.537Z,95011.45
2018-12-04T20:25:55.489Z,95012.51
2018-12-04T20:28:25.177Z,95008.75
2018-12-04T20:30:56.541Z,95007.75
2018-12-04T20:33:26.608Z,95010.64
2018-12-04T20:35:56.934Z,95013.80
2018-12-04T20:38:28.321Z,95014.38
2018-12-04T20:40:58.257Z,95010.98
2018-12-04T20:43:28.185Z,95017.16
2018-12-04T20:45:57.559Z,95021.66
2018-12-04T20:48:27.030Z,95023.72
2018-12-04T20:50:56.703Z,95020.54
2018-12-04T20:53:26.159Z,95020.02
2018-12-04T20:55:55.730Z,95030.87
2018-12-04T20:58:25.197Z,95038.21
2018-12-04T21:00:54.809Z,95033.61
2018-12-04T21:03:24.695Z,95026.67
2018-12-04T21:05:54.167Z,95033.13
2018-12-04T21:08:23.564Z,95032.81
2018-12-04T21:10:53.704Z,95039.06
2018-12-04T21:13:23.651Z,95047.93
2018-12-04T21:15:53.675Z,95052.61
2018-12-04T21:18:23.723Z,95051.69
2018-12-04T21:20:53.816Z,95052.68
2018-12-04T21:23:23.910Z,95055.83
2018-12-04T21:25:54.821Z,95054.55
2018-12-04T21:28:25.259Z,95052.69
2018-12-04T21:31:00.395Z,95063.34
2018-12-04T21:33:35.342Z,95056.48
2018-12-04T21:36:11.191Z,95061.64
2018-12-04T21:38:46.361Z,95062.97
2018-12-04T21:41:22.577Z,95065.55
2018-12-04T21:43:58.771Z,95067.05
2018-12-04T21:46:33.942Z,95074.67
2018-12-04T21:49:03.855Z,95072.98
2018-12-04T21:51:33.111Z,95074.19
2018-12-04T21:54:02.400Z,95069.11
2018-12-04T21:56:31.728Z,95070.80
2018-12-04T21:59:01.043Z,95074.27
2018-12-04T22:01:31.708Z,95072.69
2018-12-04T22:04:01.082Z,95082.70
2018-12-04T22:06:30.547Z,95076.77
2018-12-04T22:08:59.984Z,95083.14
2018-12-04T22:11:29.482Z,95083.95
2018-12-04T22:13:59.176Z,95090.28
2018-12-04T22:16:28.495Z,95084.40
2018-12-04T22:18:58.044Z,95090.37
2018-12-04T22:21:27.608Z,95091.66
2018-12-04T22:23:57.337Z,95085.56
2018-12-04T22:26:27.029Z,95087.59
2018-12-04T22:28:56.606Z,95092.09
2018-12-04T22:31:25.956Z,95088.22
2018-12-04T22:33:55.216Z,95092.59
2018-12-04T22:36:24.636Z,95096.34
2018-12-04T22:38:54.390Z,95090.48
2018-12-04T22:41:23.855Z,95097.14
2018-12-04T22:43:53.487Z,95094.45
2018-12-04T22:46:23.083Z,95099.84
2018-12-04T22:48:52.662Z,95093.88
2018-12-04T22:51:22.422Z,95090.81
2018-12-04T22:53:51.818Z,95089.69
2018-12-04T22:56:21.095Z,95085.53
2018-12-04T22:58:50.400Z,95088.11
2018-12-04T23:01:42.326Z,95088.83
2018-12-04T23:04:11.608Z,95085.33
2018-12-04T23:06:41.483Z,95092.78
2018-12-04T23:09:11.469Z,95100.02
2018-12-04T23:11:40.764Z,95099.93
2018-12-04T23:14:10.164Z,95092.19
2018-12-04T23:16:39.463Z,95096.75
2018-12-04T23:19:09.320Z,95099.24
2018-12-04T23:21:39.006Z,95103.36
2018-12-04T23:24:08.411Z,95108.16
2018-12-04T23:26:37.766Z,95101.91
2018-12-04T23:29:07.107Z,95105.66
2018-12-04T23:31:36.909Z,95100.70
2018-12-04T23:34:06.247Z,95107.75
2018-12-04T23:36:35.622Z,95105.58
2018-12-04T23:39:06.437Z,95108.08
2018-12-04T23:41:36.080Z,95116.71
2018-12-04T23:44:05.435Z,95118.98
2018-12-04T23:46:35.079Z,95116.27
2018-12-04T23:49:04.400Z,95114.08
2018-12-04T23:51:33.817Z,95118.89
2018-12-04T23:54:03.162Z,95120.94
2018-12-04T23:56:32.815Z,95124.53
2018-12-04T23:59:02.260Z,95126.83
